createdAt,value
2023-03-13T00:02:24.663Z,99821.55
2023-03-13T00:04:58.802Z,99822.25
2023-03-13T00:07:33.284Z,99818.79
2023-03-13T00:10:08.487Z,99817.67
2023-03-13T00:12:41.978Z,99811.52
2023-03-13T00:15:15.520Z,99811.42
2023-03-13T00:17:49.491Z,99805.73
2023-03-13T00:20:23.513Z,99804.64
2023-03-13T00:22:57.598Z,99805.60
2023-03-13T00:25:31.306Z,99802.95
2023-03-13T00:28:05.088Z,99804.48
2023-03-13T00:30:38.867Z,99806.87
2023-03-13T00:33:12.564Z,99807.61
2023-03-13T00:35:45.979Z,99809.42
2023-03-13T00:38:19.699Z,99804.92
2023-03-13T00:41:00.259Z,99804.02
2023-03-13T00:43:34.309Z,99801.08
2023-03-13T00:46:08.494Z,99799.53
2023-03-13T00:48:42.670Z,99795.39
2023-03-13T00:51:17.561Z,99788.98
2023-03-13T00:53:51.449Z,99790.37
2023-03-13T00:56:25.224Z,99792.87
2023-03-13T00:58:59.274Z,99789.68
2023-03-13T01:01:34.600Z,99784.58
2023-03-13T01:04:09.602Z,99778.45
2023-03-13T01:06:44.347Z,99773.98
2023-03-13T01:09:19.359Z,99774.77
2023-03-13T01:11:53.468Z,99764.00
2023-03-13T01:14:26.966Z,99758.45
2023-03-13T01:17:00.674Z,99756.96
2023-03-13T01:19:34.108Z,99758.02
2023-03-13T01:22:11.518Z,99756.95
2023-03-13T01:24:46.524Z,99753.25
2023-03-13T01:27:20.965Z,99755.08
2023-03-13T01:29:54.347Z,99752.10
2023-03-13T01:32:28.403Z,99747.88
2023-03-13T01:35:01.867Z,99750.51
2023-03-13T01:37:35.547Z,99748.02
2023-03-13T01:40:11.579Z,99743.73
2023-03-13T01:42:56.772Z,99739.41
2023-03-13T01:46:05.202Z,99732.76
2023-03-13T01:48:54.022Z,99724.24
2023-03-13T01:51:31.818Z,99722.59
2023-03-13T01:54:11.945Z,99717.89
2023-03-13T01:56:50.394Z,99717.27
2023-03-13T01:59:28.451Z,99712.98
2023-03-13T02:02:04.920Z,99716.52
2023-03-13T02:04:41.502Z,99717.98
2023-03-13T02:07:19.472Z,99715.80
2023-03-13T02:09:56.280Z,99713.47
2023-03-13T02:12:34.606Z,99707.77
2023-03-13T02:15:11.907Z,99703.66
2023-03-13T02:17:46.705Z,99704.36
2023-03-13T02:20:23.183Z,99699.79
2023-03-13T02:23:05.811Z,99695.08
2023-03-13T02:25:44.999Z,99696.33
2023-03-13T02:28:22.909Z,99695.23
2023-03-13T02:30:59.331Z,99695.67
2023-03-13T02:33:37.240Z,99694.89
2023-03-13T02:36:13.361Z,99697.68
2023-03-13T02:38:53.765Z,99704.45
2023-03-13T02:41:29.440Z,99704.21
2023-03-13T02:44:03.873Z,99698.55
2023-03-13T02:46:48.658Z,99693.05
2023-03-13T02:49:25.269Z,99700.16
2023-03-13T02:52:02.062Z,99701.27
2023-03-13T02:54:40.003Z,99696.41
2023-03-13T02:57:14.478Z,99694.33
2023-03-13T02:59:47.956Z,99696.08
2023-03-13T03:02:23.031Z,99693.77
2023-03-13T03:04:57.327Z,99693.48
2023-03-13T03:07:32.061Z,99695.13
2023-03-13T03:10:06.197Z,99701.00
2023-03-13T03:12:40.071Z,99706.98
2023-03-13T03:15:14.741Z,99706.94
2023-03-13T03:17:51.511Z,99704.64
2023-03-13T03:20:25.108Z,99701.52
2023-03-13T03:22:59.170Z,99698.33
2023-03-13T03:25:33.727Z,99694.20
2023-03-13T03:28:08.357Z,99695.20
2023-03-13T03:30:42.256Z,99694.61
2023-03-13T03:33:16.023Z,99699.05
2023-03-13T03:35:50.381Z,99699.13
2023-03-13T03:38:23.745Z,99699.35
2023-03-13T03:40:57.467Z,99696.75
2023-03-13T03:43:31.104Z,99699.27
2023-03-13T03:46:05.588Z,99689.84
2023-03-13T03:48:39.579Z,99689.13
2023-03-13T03:51:14.529Z,99688.73
2023-03-13T03:53:50.358Z,99684.89
2023-03-13T03:56:23.786Z,99678.63
2023-03-13T03:59:00.782Z,99677.29
2023-03-13T04:01:48.040Z,99679.39
2023-03-13T04:04:26.696Z,99678.89
2023-03-13T04:07:07.518Z,99672.73
2023-03-13T04:09:41.660Z,99671.91
2023-03-13T04:12:19.727Z,99671.46
2023-03-13T04:14:53.515Z,99666.30
2023-03-13T04:17:28.067Z,99662.25
2023-03-13T04:20:02.144Z,99663.27
2023-03-13T04:22:37.491Z,99655.61
2023-03-13T04:25:12.526Z,99652.34
2023-03-13T04:27:46.599Z,99649.33
2023-03-13T04:30:21.406Z,99648.20
2023-03-13T04:33:13.717Z,99643.16
2023-03-13T04:36:16.652Z,99638.49
2023-03-13T04:39:05.839Z,99631.86
2023-03-13T04:41:58.713Z,99632.31
2023-03-13T04:45:10.739Z,99628.52
2023-03-13T04:47:57.218Z,99626.76
2023-03-13T04:50:51.568Z,99624.03
2023-03-13T04:53:28.056Z,99624.48
2023-03-13T04:56:13.114Z,99620.59
2023-03-13T04:59:13.978Z,99616.65
2023-03-13T05:02:15.591Z,99618.00
2023-03-13T05:04:52.180Z,99616.44
2023-03-13T05:07:45.586Z,99612.30
2023-03-13T05:10:58.001Z,99612.23
2023-03-13T05:14:04.685Z,99608.59
2023-03-13T05:16:55.711Z,99604.60
2023-03-13T05:19:52.907Z,99604.05
2023-03-13T05:22:46.327Z,99599.86
2023-03-13T05:25:46.674Z,99598.25
2023-03-13T05:28:32.451Z,99603.77
2023-03-13T05:31:25.395Z,99606.61
2023-03-13T05:34:31.555Z,99604.79
2023-03-13T05:37:05.168Z,99606.03
2023-03-13T05:40:11.004Z,99599.42
2023-03-13T05:43:14.892Z,99600.67
2023-03-13T05:46:12.353Z,99608.68
2023-03-13T05:49:09.271Z,99612.06
2023-03-13T05:52:01.507Z,99610.66
2023-03-13T05:54:49.723Z,99611.25
2023-03-13T05:57:31.721Z,99612.92
2023-03-13T06:00:25.236Z,99611.36
2023-03-13T06:03:17.617Z,99612.24
2023-03-13T06:05:59.116Z,99606.45
2023-03-13T06:08:44.143Z,99606.70
2023-03-13T06:11:17.976Z,99603.73
2023-03-13T06:13:52.601Z,99600.02
2023-03-13T06:16:38.442Z,99598.66
2023-03-13T06:19:25.815Z,99599.52
2023-03-13T06:21:59.564Z,99595.33
2023-03-13T06:24:33.299Z,99590.27
2023-03-13T06:27:07.111Z,99594.00
2023-03-13T06:29:40.635Z,99590.92
2023-03-13T06:32:14.144Z,99590.70
2023-03-13T06:34:47.930Z,99589.34
2023-03-13T06:37:21.670Z,99589.60
2023-03-13T06:39:55.646Z,99591.01
2023-03-13T06:42:29.163Z,99592.45
2023-03-13T06:45:03.708Z,99589.87
2023-03-13T06:47:37.424Z,99590.54
2023-03-13T06:50:12.642Z,99588.27
2023-03-13T06:52:47.908Z,99583.30
2023-03-13T06:55:21.512Z,99584.95
2023-03-13T06:57:55.844Z,99584.27
2023-03-13T07:00:30.886Z,99581.64
2023-03-13T07:03:05.285Z,99578.15
2023-03-13T07:05:39.143Z,99575.33
2023-03-13T07:08:13.678Z,99571.95
2023-03-13T07:10:51.299Z,99569.74
2023-03-13T07:13:24.761Z,99565.56
2023-03-13T07:16:01.755Z,99566.77
2023-03-13T07:18:36.324Z,99565.27
2023-03-13T07:21:11.745Z,99561.73
2023-03-13T07:23:45.496Z,99560.13
2023-03-13T07:26:20.605Z,99560.27
2023-03-13T07:28:55.034Z,99559.29
2023-03-13T07:31:30.586Z,99558.38
2023-03-13T07:34:04.386Z,99557.93
2023-03-13T07:36:38.052Z,99554.46
2023-03-13T07:39:11.807Z,99552.38
2023-03-13T07:41:45.801Z,99546.14
2023-03-13T07:44:23.084Z,99540.50
2023-03-13T07:46:56.879Z,99540.36
2023-03-13T07:49:30.750Z,99539.64
2023-03-13T07:52:04.707Z,99539.45
2023-03-13T07:54:38.469Z,99537.58
2023-03-13T07:57:12.202Z,99537.75
2023-03-13T07:59:45.846Z,99535.04
2023-03-13T08:02:19.761Z,99527.65
2023-03-13T08:04:57.214Z,99524.87
2023-03-13T08:07:32.423Z,99522.89
2023-03-13T08:10:06.703Z,99517.88
2023-03-13T08:12:40.374Z,99513.67
2023-03-13T08:15:15.103Z,99514.70
2023-03-13T08:17:49.027Z,99513.98
2023-03-13T08:20:23.186Z,99517.77
2023-03-13T08:22:59.641Z,99513.65
2023-03-13T08:25:33.799Z,99513.54
2023-03-13T08:28:25.432Z,99518.61
2023-03-13T08:30:59.007Z,99514.59
2023-03-13T08:33:33.115Z,99522.41
2023-03-13T08:36:15.453Z,99512.84
2023-03-13T08:38:50.000Z,99507.31
2023-03-13T08:41:25.546Z,99504.95
2023-03-13T08:44:00.032Z,99501.89
2023-03-13T08:46:35.617Z,99496.48
2023-03-13T08:49:10.582Z,99487.86
2023-03-13T08:51:44.530Z,99481.80
2023-03-13T08:54:17.969Z,99473.09
2023-03-13T08:56:51.873Z,99472.02
2023-03-13T08:59:25.734Z,99464.58
2023-03-13T09:01:59.745Z,99454.61
2023-03-13T09:04:33.211Z,99449.54
2023-03-13T09:07:07.165Z,99446.29
2023-03-13T09:09:40.781Z,99441.48
2023-03-13T09:12:29.641Z,99437.36
2023-03-13T09:15:05.132Z,99429.38
2023-03-13T09:17:38.803Z,99421.17
2023-03-13T09:20:14.942Z,99416.63
2023-03-13T09:22:48.451Z,99415.42
2023-03-13T09:25:22.200Z,99413.33
2023-03-13T09:27:56.099Z,99409.94
2023-03-13T09:30:29.717Z,99406.91
2023-03-13T09:33:03.567Z,99402.83
2023-03-13T09:35:37.290Z,99400.00
2023-03-13T09:38:11.201Z,99400.43
2023-03-13T09:40:59.828Z,99395.54
2023-03-13T09:43:47.649Z,99390.01
2023-03-13T09:46:26.945Z,99386.12
2023-03-13T09:49:06.160Z,99385.20
2023-03-13T09:51:43.188Z,99384.00
2023-03-13T09:54:28.549Z,99380.23
2023-03-13T09:57:07.444Z,99376.53
2023-03-13T09:59:48.679Z,99374.77
2023-03-13T10:02:29.674Z,99369.13
2023-03-13T10:05:18.799Z,99367.33
2023-03-13T10:07:52.797Z,99359.63
2023-03-13T10:10:37.020Z,99353.29
2023-03-13T10:13:21.912Z,99355.46
2023-03-13T10:16:01.586Z,99361.33
2023-03-13T10:18:36.692Z,99364.72
2023-03-13T10:21:19.177Z,99360.00
2023-03-13T10:23:57.672Z,99359.73
2023-03-13T10:26:34.456Z,99359.59
2023-03-13T10:29:22.370Z,99366.41
2023-03-13T10:32:00.953Z,99366.25
2023-03-13T10:34:51.233Z,99355.48
2023-03-13T10:37:30.712Z,99350.80
2023-03-13T10:40:23.445Z,99349.45
2023-03-13T10:43:03.072Z,99340.67
2023-03-13T10:45:39.487Z,99335.39
2023-03-13T10:48:20.783Z,99327.98
2023-03-13T10:50:57.752Z,99322.14
2023-03-13T10:53:38.987Z,99320.14
2023-03-13T10:56:17.996Z,99316.04
2023-03-13T10:58:53.803Z,99307.54
2023-03-13T11:01:29.838Z,99309.34
2023-03-13T11:04:23.072Z,99303.73
2023-03-13T11:07:03.909Z,99298.98
2023-03-13T11:09:37.671Z,99291.57
2023-03-13T11:12:19.579Z,99288.45
2023-03-13T11:15:00.797Z,99282.48
2023-03-13T11:17:39.097Z,99281.41
2023-03-13T11:20:28.307Z,99275.64
2023-03-13T11:23:16.911Z,99269.64
2023-03-13T11:25:56.280Z,99257.11
2023-03-13T11:28:42.546Z,99244.22
2023-03-13T11:31:21.489Z,99227.23
2023-03-13T11:34:04.420Z,99220.11
2023-03-13T11:36:42.469Z,99217.39
2023-03-13T11:39:45.250Z,99210.70
2023-03-13T11:42:40.884Z,99199.88
2023-03-13T11:45:32.182Z,99190.34
2023-03-13T11:48:11.443Z,99194.69
2023-03-13T11:50:54.345Z,99181.43
2023-03-13T11:53:40.642Z,99177.16
2023-03-13T11:56:22.331Z,99181.96
2023-03-13T11:59:26.591Z,99178.71
2023-03-13T12:02:08.919Z,99182.08
2023-03-13T12:04:46.747Z,99178.86
2023-03-13T12:07:28.801Z,99174.95
2023-03-13T12:10:06.782Z,99171.85
2023-03-13T12:12:48.061Z,99174.96
2023-03-13T12:15:28.071Z,99175.27
2023-03-13T12:18:05.164Z,99175.44
2023-03-13T12:20:46.423Z,99176.55
2023-03-13T12:23:26.506Z,99177.98
2023-03-13T12:26:04.862Z,99169.02
2023-03-13T12:28:44.692Z,99160.02
2023-03-13T12:31:24.781Z,99157.37
2023-03-13T12:34:10.041Z,99154.23
2023-03-13T12:36:48.813Z,99146.46
2023-03-13T12:39:36.474Z,99148.77
2023-03-13T12:42:26.693Z,99151.68
2023-03-13T12:45:01.211Z,99148.22
2023-03-13T12:47:39.315Z,99144.29
2023-03-13T12:50:28.668Z,99138.94
2023-03-13T12:53:31.150Z,99143.55
2023-03-13T12:56:19.118Z,99135.70
2023-03-13T12:58:56.029Z,99138.95
2023-03-13T13:01:36.682Z,99132.52
2023-03-13T13:04:16.923Z,99132.21
2023-03-13T13:07:02.156Z,99131.72
2023-03-13T13:09:37.702Z,99127.39
2023-03-13T13:12:23.710Z,99123.99
2023-03-13T13:15:13.836Z,99116.58
2023-03-13T13:18:17.823Z,99107.20
2023-03-13T13:21:13.343Z,99103.69
2023-03-13T13:23:48.492Z,99101.36
2023-03-13T13:26:53.439Z,99099.58
2023-03-13T13:30:00.492Z,99094.33
2023-03-13T13:32:51.617Z,99089.55
2023-03-13T13:35:29.602Z,99086.69
2023-03-13T13:38:40.694Z,99089.85
2023-03-13T13:41:38.949Z,99089.59
2023-03-13T13:44:29.674Z,99085.63
2023-03-13T13:47:03.581Z,99081.13
2023-03-13T13:49:40.019Z,99080.91
2023-03-13T13:52:42.730Z,99084.77
2023-03-13T13:55:43.909Z,99083.41
2023-03-13T13:58:24.397Z,99079.07
2023-03-13T14:01:02.439Z,99080.66
2023-03-13T14:03:42.485Z,99073.27
2023-03-13T14:06:23.172Z,99063.20
2023-03-13T14:09:03.100Z,99060.77
2023-03-13T14:11:40.405Z,99060.33
2023-03-13T14:14:16.456Z,99052.34
2023-03-13T14:16:52.616Z,99046.88
2023-03-13T14:19:31.626Z,99045.34
2023-03-13T14:22:07.459Z,99037.69
2023-03-13T14:24:42.132Z,99034.09
2023-03-13T14:27:22.546Z,99025.13
2023-03-13T14:30:07.416Z,99015.07
2023-03-13T14:32:41.692Z,99013.81
2023-03-13T14:35:19.655Z,99005.02
2023-03-13T14:38:03.662Z,99002.89
2023-03-13T14:40:41.775Z,98995.08
2023-03-13T14:43:25.572Z,98994.02
2023-03-13T14:45:59.739Z,98992.60
2023-03-13T14:48:35.551Z,98989.27
2023-03-13T14:51:19.963Z,98983.80
2023-03-13T14:54:01.796Z,98973.59
2023-03-13T14:56:37.704Z,98968.54
2023-03-13T14:59:17.961Z,98964.48
2023-03-13T15:02:02.945Z,98967.09
2023-03-13T15:05:01.888Z,98975.52
2023-03-13T15:07:43.753Z,98979.11
2023-03-13T15:10:24.958Z,98968.40
2023-03-13T15:12:59.333Z,98964.94
2023-03-13T15:15:33.493Z,98966.84
2023-03-13T15:18:20.798Z,98965.60
2023-03-13T15:20:55.504Z,98957.95
2023-03-13T15:23:30.547Z,98960.71
2023-03-13T15:26:06.004Z,98961.10
2023-03-13T15:28:40.045Z,98955.94
2023-03-13T15:31:16.391Z,98952.46
2023-03-13T15:33:58.580Z,98953.16
2023-03-13T15:36:33.822Z,98948.27
2023-03-13T15:39:08.449Z,98944.34
2023-03-13T15:41:41.788Z,98949.06
2023-03-13T15:44:15.761Z,98947.00
2023-03-13T15:46:49.508Z,98944.45
2023-03-13T15:49:24.109Z,98946.38
2023-03-13T15:51:57.992Z,98942.35
2023-03-13T15:54:32.002Z,98942.24
2023-03-13T15:57:05.703Z,98940.66
2023-03-13T15:59:39.318Z,98942.52
2023-03-13T16:02:18.370Z,98945.12
2023-03-13T16:04:53.317Z,98944.68
2023-03-13T16:07:26.830Z,98945.65
2023-03-13T16:10:00.637Z,98944.84
2023-03-13T16:12:34.310Z,98942.23
2023-03-13T16:15:09.695Z,98938.08
2023-03-13T16:17:43.540Z,98936.77
2023-03-13T16:20:21.264Z,98940.79
2023-03-13T16:22:55.501Z,98939.15
2023-03-13T16:25:29.446Z,98939.21
2023-03-13T16:28:02.784Z,98938.28
2023-03-13T16:30:37.561Z,98942.14
2023-03-13T16:33:11.966Z,98942.02
2023-03-13T16:35:46.481Z,98939.30
2023-03-13T16:38:21.668Z,98935.23
2023-03-13T16:40:55.661Z,98939.89
2023-03-13T16:43:29.844Z,98939.11
2023-03-13T16:46:09.211Z,98938.73
2023-03-13T16:48:42.845Z,98936.93
2023-03-13T16:51:21.122Z,98940.88
2023-03-13T16:53:56.583Z,98941.56
2023-03-13T16:56:35.140Z,98937.92
2023-03-13T16:59:09.060Z,98931.66
2023-03-13T17:01:44.744Z,98936.75
2023-03-13T17:04:18.683Z,98938.17
2023-03-13T17:06:53.183Z,98942.14
2023-03-13T17:09:27.204Z,98943.48
2023-03-13T17:12:00.665Z,98943.43
2023-03-13T17:14:35.420Z,98948.99
2023-03-13T17:17:11.911Z,98952.25
2023-03-13T17:19:46.421Z,98950.01
2023-03-13T17:22:21.347Z,98952.32
2023-03-13T17:24:54.975Z,98953.17
2023-03-13T17:27:29.902Z,98953.39
2023-03-13T17:30:03.527Z,98957.77
2023-03-13T17:32:38.010Z,98955.19
2023-03-13T17:35:13.370Z,98956.36
2023-03-13T17:37:50.031Z,98953.95
2023-03-13T17:40:27.153Z,98950.23
2023-03-13T17:43:01.061Z,98951.40
2023-03-13T17:45:38.157Z,98950.84
2023-03-13T17:48:15.852Z,98950.27
2023-03-13T17:50:51.493Z,98949.82
2023-03-13T17:53:25.320Z,98944.31
2023-03-13T17:56:04.062Z,98946.42
2023-03-13T17:58:42.990Z,98943.05
2023-03-13T18:01:21.572Z,98937.10
2023-03-13T18:04:06.282Z,98938.81
2023-03-13T18:06:45.428Z,98941.34
2023-03-13T18:09:19.734Z,98938.56
2023-03-13T18:11:56.608Z,98939.27
2023-03-13T18:14:32.426Z,98930.27
2023-03-13T18:17:16.866Z,98926.84
2023-03-13T18:19:57.190Z,98925.13
2023-03-13T18:22:32.071Z,98921.48
2023-03-13T18:25:08.391Z,98923.38
2023-03-13T18:27:44.567Z,98924.39
2023-03-13T18:30:24.420Z,98922.88
2023-03-13T18:33:01.120Z,98924.61
2023-03-13T18:35:40.899Z,98914.16
2023-03-13T18:38:21.369Z,98922.83
2023-03-13T18:41:00.347Z,98917.88
2023-03-13T18:43:42.235Z,98908.94
2023-03-13T18:46:24.737Z,98914.99
2023-03-13T18:49:04.680Z,98910.63
2023-03-13T18:51:42.027Z,98913.52
2023-03-13T18:54:19.271Z,98906.27
2023-03-13T18:56:57.993Z,98906.29
2023-03-13T18:59:38.579Z,98902.18
2023-03-13T19:02:19.627Z,98897.54
2023-03-13T19:04:59.557Z,98898.13
2023-03-13T19:07:37.549Z,98898.16
2023-03-13T19:10:21.210Z,98894.06
2023-03-13T19:12:58.633Z,98890.03
2023-03-13T19:15:34.550Z,98881.82
2023-03-13T19:18:19.360Z,98883.36
2023-03-13T19:21:02.748Z,98884.13
2023-03-13T19:23:41.671Z,98881.68
2023-03-13T19:26:33.715Z,98879.84
2023-03-13T19:29:17.916Z,98884.69
2023-03-13T19:31:57.466Z,98890.17
2023-03-13T19:34:33.429Z,98894.98
2023-03-13T19:37:12.760Z,98905.52
2023-03-13T19:39:50.473Z,98910.48
2023-03-13T19:42:35.295Z,98909.56
2023-03-13T19:45:14.268Z,98907.82
2023-03-13T19:47:56.127Z,98909.84
2023-03-13T19:50:33.019Z,98905.96
2023-03-13T19:53:09.818Z,98901.44
2023-03-13T19:55:46.588Z,98904.33
2023-03-13T19:58:22.416Z,98909.56
2023-03-13T20:01:11.307Z,98907.41
2023-03-13T20:03:55.426Z,98908.59
2023-03-13T20:06:33.890Z,98908.40
2023-03-13T20:09:12.674Z,98907.06
2023-03-13T20:11:52.435Z,98906.52
2023-03-13T20:14:29.790Z,98905.73
2023-03-13T20:17:10.637Z,98901.54
2023-03-13T20:19:48.538Z,98904.18
2023-03-13T20:22:27.797Z,98902.71
2023-03-13T20:25:13.506Z,98896.87
2023-03-13T20:27:49.941Z,98895.68
2023-03-13T20:30:29.228Z,98892.41
2023-03-13T20:33:13.050Z,98889.25
2023-03-13T20:35:54.019Z,98890.56
2023-03-13T20:38:32.523Z,98891.36
2023-03-13T20:41:14.043Z,98883.79
2023-03-13T20:43:51.763Z,98879.32
2023-03-13T20:46:31.495Z,98873.39
2023-03-13T20:49:07.316Z,98878.27
2023-03-13T20:51:43.931Z,98875.54
2023-03-13T20:54:20.653Z,98867.15
2023-03-13T20:56:56.267Z,98868.80
2023-03-13T20:59:35.312Z,98862.09
2023-03-13T21:02:12.349Z,98857.85
2023-03-13T21:04:49.017Z,98856.73
2023-03-13T21:07:25.753Z,98851.84
2023-03-13T21:10:07.485Z,98849.92
2023-03-13T21:12:46.316Z,98847.59
2023-03-13T21:15:22.132Z,98843.86
2023-03-13T21:17:57.315Z,98840.44
2023-03-13T21:20:33.695Z,98839.08
2023-03-13T21:23:07.985Z,98840.19
2023-03-13T21:25:44.068Z,98838.71
2023-03-13T21:28:18.839Z,98838.77
2023-03-13T21:30:53.287Z,98838.82
2023-03-13T21:33:28.250Z,98838.48
2023-03-13T21:36:02.751Z,98845.16
2023-03-13T21:38:38.772Z,98842.66
2023-03-13T21:41:14.735Z,98839.33
2023-03-13T21:43:49.281Z,98829.81
2023-03-13T21:46:23.949Z,98823.15
2023-03-13T21:48:58.348Z,98818.37
2023-03-13T21:51:32.163Z,98819.14
2023-03-13T21:54:05.748Z,98815.23
2023-03-13T21:56:39.802Z,98808.44
2023-03-13T21:59:13.644Z,98804.05
2023-03-13T22:01:48.315Z,98800.52
2023-03-13T22:04:22.278Z,98802.02
2023-03-13T22:06:58.800Z,98790.52
2023-03-13T22:09:33.267Z,98787.45
2023-03-13T22:12:07.205Z,98782.56
2023-03-13T22:14:41.076Z,98779.36
2023-03-13T22:17:18.007Z,98777.25
2023-03-13T22:19:51.735Z,98781.14
2023-03-13T22:22:25.742Z,98780.88
2023-03-13T22:24:59.189Z,98785.84
2023-03-13T22:27:33.007Z,98792.25
2023-03-13T22:30:08.049Z,98796.30
2023-03-13T22:32:42.213Z,98789.13
2023-03-13T22:35:16.730Z,98793.91
2023-03-13T22:37:50.342Z,98793.21
2023-03-13T22:40:23.931Z,98778.57
2023-03-13T22:42:58.090Z,98776.83
2023-03-13T22:45:34.430Z,98769.13
2023-03-13T22:48:08.857Z,98768.34
2023-03-13T22:50:42.506Z,98768.98
2023-03-13T22:53:16.593Z,98762.05
2023-03-13T22:55:50.329Z,98763.22
2023-03-13T22:58:24.162Z,98766.45
2023-03-13T23:00:58.371Z,98763.00
2023-03-13T23:03:32.177Z,98763.38
2023-03-13T23:06:09.425Z,98762.98
2023-03-13T23:08:44.020Z,98758.94
2023-03-13T23:11:18.306Z,98761.40
2023-03-13T23:13:52.727Z,98760.05
2023-03-13T23:16:26.767Z,98755.27
2023-03-13T23:19:00.321Z,98759.68
2023-03-13T23:21:34.469Z,98756.88
2023-03-13T23:24:09.317Z,98757.61
2023-03-13T23:26:43.002Z,98758.20
2023-03-13T23:29:16.865Z,98756.09
2023-03-13T23:31:50.547Z,98747.54
2023-03-13T23:34:25.108Z,98747.34
2023-03-13T23:36:59.664Z,98747.23
2023-03-13T23:39:33.584Z,98741.20
2023-03-13T23:42:09.202Z,98738.20
2023-03-13T23:44:42.864Z,98733.42
2023-03-13T23:47:16.538Z,98732.37
2023-03-13T23:49:50.072Z,98729.91
2023-03-13T23:52:23.825Z,98725.54
2023-03-13T23:54:57.162Z,98722.63
2023-03-13T23:57:30.840Z,98723.15
